createdAt,value
2023-03-24T00:02:31.925Z,2.4
2023-03-24T00:08:12.589Z,2.4
2023-03-24T00:13:33.241Z,2.4
2023-03-24T00:19:10.173Z,2.3
2023-03-24T00:24:45.354Z,2.2
2023-03-24T00:30:05.876Z,2.2
2023-03-24T00:35:58.312Z,2.1
2023-03-24T00:41:49.537Z,2.1
2023-03-24T00:47:41.414Z,2.1
2023-03-24T00:53:02.717Z,1.9
2023-03-24T00:58:38.814Z,1.9
2023-03-24T01:03:59.516Z,1.9
2023-03-24T01:09:51.122Z,1.9
2023-03-24T01:15:26.752Z,1.9
2023-03-24T01:21:03.067Z,1.8
2023-03-24T01:26:54.917Z,1.8
2023-03-24T01:32:46.979Z,1.8
2023-03-24T01:38:38.792Z,1.8
2023-03-24T01:44:33.140Z,1.8
2023-03-24T01:50:26.419Z,1.8
2023-03-24T01:56:17.993Z,1.8
2023-03-24T02:01:54.392Z,1.7
2023-03-24T02:07:46.685Z,1.6
2023-03-24T02:13:23.016Z,1.6
2023-03-24T02:18:59.905Z,1.6
2023-03-24T02:24:35.722Z,1.6
2023-03-24T02:30:26.864Z,1.5
2023-03-24T02:36:18.799Z,1.4
2023-03-24T02:41:39.454Z,1.5
2023-03-24T02:47:31.516Z,1.5
2023-03-24T02:53:23.280Z,1.7
2023-03-24T02:59:15.129Z,1.8
2023-03-24T03:05:07.240Z,1.8
2023-03-24T03:10:59.723Z,1.8
2023-03-24T03:16:51.082Z,1.7
2023-03-24T03:22:27.449Z,1.7
2023-03-24T03:27:47.910Z,1.7
2023-03-24T03:32:53.215Z,1.7
2023-03-24T03:38:29.712Z,1.6
2023-03-24T03:44:05.420Z,1.6
2023-03-24T03:49:41.435Z,1.6
2023-03-24T03:55:12.497Z,1.5
2023-03-24T04:01:04.003Z,1.4
2023-03-24T04:06:34.399Z,1.4
2023-03-24T04:12:10.838Z,1.3
2023-03-24T04:18:03.419Z,1.1
2023-03-24T04:23:38.841Z,1.1
2023-03-24T04:29:29.681Z,0.9
2023-03-24T04:35:22.110Z,0.9
2023-03-24T04:41:14.711Z,0.8
2023-03-24T04:47:07.011Z,0.8
2023-03-24T04:52:43.149Z,0.8
2023-03-24T04:58:35.331Z,0.9
2023-03-24T05:04:27.635Z,1.1
2023-03-24T05:10:20.090Z,1.3
2023-03-24T05:16:15.147Z,1.7
2023-03-24T05:21:52.363Z,2.6
2023-03-24T05:27:28.776Z,3.9
2023-03-24T05:33:05.846Z,5.6
2023-03-24T05:38:42.166Z,7.6
2023-03-24T05:44:34.189Z,9.9
2023-03-24T05:50:26.611Z,12.5
2023-03-24T05:56:17.972Z,15.1
2023-03-24T06:01:53.925Z,17.7
2023-03-24T06:07:47.388Z,20.4
2023-03-24T06:13:38.983Z,23.1
2023-03-24T06:19:15.546Z,26
2023-03-24T06:25:06.536Z,29.1
2023-03-24T06:30:43.401Z,32.1
2023-03-24T06:44:38.062Z,30.1
2023-03-24T06:50:32.825Z,31.6
2023-03-24T06:56:26.507Z,38.9
2023-03-24T07:02:18.776Z,36.4
2023-03-24T07:09:12.602Z,34.9
2023-03-24T07:15:06.452Z,36.2
2023-03-24T07:20:58.456Z,36.9
2023-03-24T07:26:50.817Z,38
2023-03-24T07:32:57.831Z,39.1
2023-03-24T07:38:49.818Z,38.9
2023-03-24T07:44:42.480Z,39.9
2023-03-24T07:50:47.506Z,41.9
2023-03-24T07:56:42.232Z,43.4
2023-03-24T08:02:36.251Z,44.3
2023-03-24T08:08:16.519Z,45.6
2023-03-24T08:14:18.744Z,46.7
2023-03-24T08:20:06.071Z,47.4
2023-03-24T08:25:44.662Z,48.4
2023-03-24T08:31:36.874Z,49.5
2023-03-24T08:37:29.634Z,50.9
2023-03-24T08:43:25.599Z,52
2023-03-24T08:48:49.954Z,51.3
2023-03-24T08:54:26.829Z,51.7
2023-03-24T09:00:18.495Z,50.9
2023-03-24T09:06:06.634Z,52.3
2023-03-24T09:11:43.324Z,53.8
2023-03-24T09:17:04.317Z,54.9
2023-03-24T09:22:25.454Z,56.4
2023-03-24T09:28:19.259Z,57.6
2023-03-24T09:33:59.273Z,57.7
2023-03-24T09:39:36.481Z,57.4
2023-03-24T09:45:15.587Z,58.1
2023-03-24T09:50:51.701Z,58.9
2023-03-24T09:56:28.103Z,58.9
2023-03-24T10:02:22.478Z,59
2023-03-24T10:08:01.435Z,59.6
2023-03-24T10:13:52.810Z,60.7
2023-03-24T10:20:06.580Z,61.5
2023-03-24T10:25:58.050Z,62.1
2023-03-24T10:31:34.519Z,62.6
2023-03-24T10:36:55.641Z,62.9
2023-03-24T10:43:06.549Z,63.1
2023-03-24T10:49:01.612Z,63.4
2023-03-24T10:55:00.326Z,63.6
2023-03-24T11:00:39.612Z,63.6
2023-03-24T11:06:17.916Z,62.2
2023-03-24T11:11:54.251Z,62.8
2023-03-24T11:17:56.360Z,63.7
2023-03-24T11:23:49.735Z,64.6
2023-03-24T11:29:26.399Z,64.9
2023-03-24T11:35:21.727Z,63.6
2023-03-24T11:41:23.711Z,61.9
2023-03-24T11:47:00.746Z,62.1
2023-03-24T11:52:54.989Z,63
2023-03-24T11:58:31.533Z,63.3
2023-03-24T12:04:25.909Z,63.9
2023-03-24T12:10:19.814Z,62.3
2023-03-24T12:16:40.230Z,56.5
2023-03-24T12:22:31.735Z,56.3
2023-03-24T12:28:22.956Z,66
2023-03-24T12:34:14.028Z,63.5
2023-03-24T12:40:09.466Z,61.1
2023-03-24T12:46:01.945Z,61.3
2023-03-24T12:52:05.613Z,60.9
2023-03-24T12:57:54.328Z,62.3
2023-03-24T13:03:48.495Z,60.5
2023-03-24T13:09:35.885Z,54.1
2023-03-24T13:15:40.060Z,51.4
2023-03-24T13:21:33.399Z,50.4
2023-03-24T13:27:41.275Z,48.3
2023-03-24T13:33:32.125Z,45.4
2023-03-24T13:39:24.421Z,42.8
2023-03-24T13:45:00.926Z,43.3
2023-03-24T13:50:37.707Z,45.1
2023-03-24T13:56:29.917Z,48.1
2023-03-24T14:02:06.401Z,51.3
2023-03-24T14:07:59.282Z,53.2
2023-03-24T14:13:36.382Z,54.5
2023-03-24T14:18:57.151Z,54.8
2023-03-24T14:24:48.505Z,54.4
2023-03-24T14:30:39.573Z,51.4
2023-03-24T14:36:47.549Z,48.1
2023-03-24T14:42:47.565Z,45.4
2023-03-24T14:48:56.090Z,43.1
2023-03-24T14:54:31.205Z,41.3
2023-03-24T14:59:51.586Z,39.8
2023-03-24T15:05:56.541Z,38.2
2023-03-24T15:11:47.209Z,36.7
2023-03-24T15:17:39.141Z,35.1
2023-03-24T15:23:30.597Z,33.9
2023-03-24T15:29:21.818Z,32.7
2023-03-24T15:35:13.562Z,31.4
2023-03-24T15:41:00.127Z,30.5
2023-03-24T15:46:15.374Z,29.7
2023-03-24T15:51:52.299Z,28.8
2023-03-24T15:57:43.360Z,28.1
2023-03-24T16:03:35.702Z,27.6
2023-03-24T16:09:39.337Z,27.1
2023-03-24T16:15:31.158Z,26.4
2023-03-24T16:20:52.064Z,25.8
2023-03-24T16:26:12.792Z,25
2023-03-24T16:31:49.728Z,24.2
2023-03-24T16:37:25.642Z,23.4
2023-03-24T16:43:02.119Z,22.5
2023-03-24T16:48:56.808Z,21.7
2023-03-24T16:54:47.850Z,20.9
2023-03-24T17:00:39.184Z,20.3
2023-03-24T17:06:31.868Z,19.5
2023-03-24T17:12:25.133Z,18.8
2023-03-24T17:18:16.306Z,18.3
2023-03-24T17:23:37.093Z,17.8
2023-03-24T17:29:27.994Z,17.4
2023-03-24T17:35:32.939Z,16.9
2023-03-24T17:41:08.881Z,16.6
2023-03-24T17:46:59.509Z,16.3
2023-03-24T17:52:51.497Z,15.9
2023-03-24T17:58:27.524Z,15.6
2023-03-24T18:04:21.529Z,15.3
2023-03-24T18:10:14.419Z,14.9
2023-03-24T18:16:13.904Z,14.6
2023-03-24T18:22:11.022Z,14.3
2023-03-24T18:28:02.565Z,13.9
2023-03-24T18:33:55.447Z,13.8
2023-03-24T18:39:47.498Z,13.5
2023-03-24T18:45:39.104Z,13.3
2023-03-24T18:51:31.242Z,13.1
2023-03-24T18:57:07.554Z,13.1
2023-03-24T19:02:44.551Z,12.9
2023-03-24T19:08:20.624Z,12.8
2023-03-24T19:13:43.734Z,12.6
2023-03-24T19:19:20.078Z,12.4
2023-03-24T19:24:56.065Z,12.2
2023-03-24T19:30:47.155Z,12.1
2023-03-24T19:36:39.126Z,11.9
2023-03-24T19:42:32.825Z,11.8
2023-03-24T19:48:24.266Z,11.6
2023-03-24T19:54:16.416Z,11.4
2023-03-24T20:00:07.945Z,11.4
2023-03-24T20:05:59.543Z,11.3
2023-03-24T20:11:41.204Z,11.3
2023-03-24T20:17:17.823Z,11.2
2023-03-24T20:23:09.023Z,11.1
2023-03-24T20:29:00.916Z,11.1
2023-03-24T20:34:52.479Z,10.9
2023-03-24T20:40:43.690Z,10.8
2023-03-24T20:46:35.365Z,10.7
2023-03-24T20:52:26.756Z,10.5
2023-03-24T20:58:04.937Z,10.3
2023-03-24T21:04:02.166Z,10
2023-03-24T21:09:40.794Z,9.9
2023-03-24T21:15:55.143Z,9.8
2023-03-24T21:21:47.389Z,9.6
2023-03-24T21:27:41.539Z,9.3
2023-03-24T21:33:33.325Z,9
2023-03-24T21:39:25.336Z,8.7
2023-03-24T21:45:18.696Z,8.4
2023-03-24T21:51:12.952Z,8.3
2023-03-24T21:57:04.724Z,8.3
2023-03-24T22:02:41.977Z,8.3
2023-03-24T22:08:33.340Z,8.2
2023-03-24T22:13:54.627Z,8
2023-03-24T22:19:49.194Z,7.8
2023-03-24T22:25:41.205Z,7.6
2023-03-24T22:31:33.977Z,7.3
2023-03-24T22:36:55.616Z,7.1
2023-03-24T22:42:47.922Z,6.9
2023-03-24T22:48:40.339Z,6.6
2023-03-24T22:54:31.807Z,6.4
2023-03-24T23:00:23.280Z,6.2
2023-03-24T23:06:24.638Z,6
2023-03-24T23:12:16.036Z,5.8
2023-03-24T23:17:21.828Z,5.6
2023-03-24T23:22:42.771Z,5.4
2023-03-24T23:28:28.065Z,5.3
2023-03-24T23:34:05.699Z,5.2
2023-03-24T23:39:44.117Z,5.1
2023-03-24T23:45:20.088Z,5
2023-03-24T23:50:57.583Z,4.9
2023-03-24T23:56:48.821Z,4.8
